createdAt,value
2022-07-31T00:00:50.434Z,12.00
2022-07-31T00:05:51.006Z,10.43
2022-07-31T00:10:52.954Z,10.85
2022-07-31T00:15:53.778Z,9.45
2022-07-31T00:20:54.426Z,13.80
2022-07-31T00:25:56.503Z,10.85
2022-07-31T00:30:57.118Z,13.68
2022-07-31T00:35:57.745Z,11.80
2022-07-31T00:40:59.705Z,14.15
2022-07-31T00:46:00.869Z,13.65
2022-07-31T00:51:01.902Z,10.63
2022-07-31T00:56:03.897Z,11.98
2022-07-31T01:01:04.599Z,13.55
2022-07-31T01:06:05.378Z,11.48
2022-07-31T01:11:12.175Z,13.05
2022-07-31T01:16:14.704Z,12.45
2022-07-31T01:21:21.717Z,19.25
2022-07-31T01:26:38.985Z,18.35
2022-07-31T01:31:46.288Z,17.15
2022-07-31T01:36:55.033Z,19.17
2022-07-31T01:41:57.317Z,14.90
2022-07-31T01:47:00.179Z,15.02
2022-07-31T01:52:05.625Z,14.75
2022-07-31T01:57:08.812Z,17.52
2022-07-31T02:02:17.176Z,14.75
2022-07-31T02:07:19.014Z,17.10
2022-07-31T02:12:20.352Z,15.18
2022-07-31T02:17:35.890Z,16.23
2022-07-31T02:22:55.070Z,17.98
2022-07-31T02:27:59.185Z,19.25
2022-07-31T02:33:03.067Z,18.25
2022-07-31T02:38:04.706Z,15.27
2022-07-31T02:43:06.605Z,17.55
2022-07-31T02:48:09.948Z,16.92
2022-07-31T02:53:15.124Z,15.65
2022-07-31T02:58:15.892Z,16.52
2022-07-31T03:03:19.959Z,16.75
2022-07-31T03:08:20.783Z,17.48
2022-07-31T03:13:28.412Z,15.63
2022-07-31T03:18:30.641Z,14.27
2022-07-31T03:23:36.240Z,18.40
2022-07-31T03:28:49.570Z,16.35
2022-07-31T03:33:51.635Z,19.50
2022-07-31T03:38:52.405Z,14.43
2022-07-31T03:44:03.789Z,16.55
2022-07-31T03:49:06.361Z,16.75
2022-07-31T03:54:08.373Z,19.25
2022-07-31T03:59:19.281Z,13.13
2022-07-31T04:04:23.542Z,12.73
2022-07-31T04:09:31.016Z,14.40
2022-07-31T04:14:31.669Z,14.43
2022-07-31T04:19:33.976Z,14.60
2022-07-31T04:24:34.782Z,16.63
2022-07-31T04:29:41.338Z,14.05
2022-07-31T04:34:43.692Z,15.85
2022-07-31T04:39:44.327Z,15.38
2022-07-31T04:44:45.653Z,13.80
2022-07-31T04:49:47.890Z,14.00
2022-07-31T04:54:51.687Z,15.10
2022-07-31T04:59:57.698Z,13.88
2022-07-31T05:05:00.687Z,15.68
2022-07-31T05:10:06.933Z,12.60
2022-07-31T05:15:09.983Z,15.18
2022-07-31T05:20:13.294Z,11.52
2022-07-31T05:25:31.619Z,12.35
2022-07-31T05:30:33.638Z,9.88
2022-07-31T05:35:35.669Z,8.93
2022-07-31T05:40:36.455Z,10.65
2022-07-31T05:46:06.414Z,8.05
2022-07-31T05:51:10.412Z,9.73
2022-07-31T05:56:11.264Z,9.82
2022-07-31T06:01:15.724Z,8.40
2022-07-31T06:06:18.491Z,9.65
2022-07-31T06:11:19.256Z,6.07
2022-07-31T06:16:20.154Z,7.30
2022-07-31T06:21:24.183Z,6.88
2022-07-31T06:26:27.718Z,7.47
2022-07-31T06:31:28.606Z,8.20
2022-07-31T06:36:32.388Z,6.78
2022-07-31T06:41:48.048Z,8.80
2022-07-31T06:47:03.810Z,5.13
2022-07-31T06:52:25.701Z,4.88
2022-07-31T06:57:27.262Z,8.93
2022-07-31T07:02:28.670Z,8.27
2022-07-31T07:07:31.782Z,9.30
2022-07-31T07:12:34.784Z,7.82
2022-07-31T07:17:36.576Z,4.78
2022-07-31T07:22:42.570Z,8.70
2022-07-31T07:27:45.724Z,5.70
2022-07-31T07:32:46.401Z,6.65
2022-07-31T07:37:48.929Z,8.05
2022-07-31T07:42:50.114Z,6.88
2022-07-31T07:47:53.724Z,7.20
2022-07-31T07:53:16.234Z,6.93
2022-07-31T07:58:35.625Z,8.38
2022-07-31T08:03:54.753Z,5.30
2022-07-31T08:08:57.442Z,5.10
2022-07-31T08:14:16.581Z,7.10
2022-07-31T08:19:36.155Z,7.95
2022-07-31T08:24:38.337Z,7.68
2022-07-31T08:29:39.839Z,8.50
2022-07-31T08:34:50.200Z,12.15
2022-07-31T08:39:52.670Z,6.25
2022-07-31T08:44:53.347Z,11.07
2022-07-31T08:50:00.642Z,8.25
2022-07-31T08:55:08.643Z,7.18
2022-07-31T09:00:13.325Z,8.02
2022-07-31T09:05:14.360Z,6.03
2022-07-31T09:10:29.962Z,5.07
2022-07-31T09:15:32.897Z,6.85
2022-07-31T09:20:36.548Z,6.80
2022-07-31T09:25:38.975Z,6.53
2022-07-31T09:30:55.853Z,6.10
2022-07-31T09:36:16.230Z,9.27
2022-07-31T09:41:56.734Z,9.77
2022-07-31T09:46:50.265Z,7.47
2022-07-31T09:51:51.107Z,6.85
2022-07-31T09:56:56.826Z,7.63
2022-07-31T10:01:59.414Z,7.38
2022-07-31T10:07:01.404Z,4.32
2022-07-31T10:12:04.152Z,5.68
2022-07-31T10:17:09.400Z,4.53
2022-07-31T10:22:28.412Z,4.80
2022-07-31T10:27:31.929Z,5.45
2022-07-31T10:32:43.185Z,6.97
2022-07-31T10:38:13.160Z,7.22
2022-07-31T10:43:29.028Z,5.38
2022-07-31T10:48:52.272Z,5.93
2022-07-31T10:54:15.878Z,5.43
2022-07-31T10:59:45.325Z,7.05
2022-07-31T11:05:13.207Z,4.07
2022-07-31T11:10:37.304Z,8.40
2022-07-31T11:16:07.373Z,10.45
2022-07-31T11:21:37.646Z,10.88
2022-07-31T11:26:41.331Z,4.93
2022-07-31T11:31:44.139Z,9.82
2022-07-31T11:36:48.083Z,9.20
2022-07-31T11:41:51.786Z,4.80
2022-07-31T11:46:55.775Z,9.23
2022-07-31T11:52:01.601Z,4.75
2022-07-31T11:57:03.055Z,5.95
2022-07-31T12:02:06.986Z,7.53
2022-07-31T12:07:09.462Z,4.93
2022-07-31T12:12:11.792Z,8.15
2022-07-31T12:17:21.335Z,5.30
2022-07-31T12:22:22.135Z,5.88
2022-07-31T12:27:22.754Z,5.72
2022-07-31T12:32:30.786Z,4.45
2022-07-31T12:37:45.782Z,4.75
2022-07-31T12:42:46.429Z,6.63
2022-07-31T12:47:52.307Z,3.13
2022-07-31T12:52:53.456Z,5.60
2022-07-31T12:57:55.032Z,3.47
2022-07-31T13:02:58.725Z,4.75
2022-07-31T13:07:59.452Z,3.25
2022-07-31T13:13:00.278Z,4.90
2022-07-31T13:18:03.269Z,3.58
2022-07-31T13:23:05.181Z,6.05
2022-07-31T13:28:05.905Z,5.90
2022-07-31T13:33:07.881Z,3.88
2022-07-31T13:38:08.525Z,2.90
2022-07-31T13:43:09.144Z,2.25
2022-07-31T13:48:11.380Z,4.40
2022-07-31T13:53:12.012Z,5.13
2022-07-31T13:58:12.834Z,4.65
2022-07-31T14:03:18.491Z,3.38
2022-07-31T14:08:30.231Z,4.65
2022-07-31T14:13:44.165Z,3.53
2022-07-31T14:18:46.222Z,4.93
2022-07-31T14:23:46.915Z,4.30
2022-07-31T14:28:47.540Z,3.90
2022-07-31T14:33:49.515Z,2.85
2022-07-31T14:38:50.127Z,4.40
2022-07-31T14:43:50.778Z,2.40
2022-07-31T14:48:52.746Z,4.25
2022-07-31T14:53:53.409Z,4.75
2022-07-31T14:58:57.666Z,1.52
2022-07-31T15:04:00.706Z,1.88
2022-07-31T15:09:01.327Z,1.52
2022-07-31T15:14:02.016Z,1.30
2022-07-31T15:19:03.997Z,1.40
2022-07-31T15:24:04.910Z,5.10
2022-07-31T15:29:05.635Z,2.25
2022-07-31T15:34:07.591Z,3.63
2022-07-31T15:39:08.343Z,0.95
2022-07-31T15:44:09.051Z,2.17
2022-07-31T15:49:11.084Z,1.88
2022-07-31T15:54:14.193Z,1.85
2022-07-31T15:59:15.914Z,3.10
2022-07-31T16:04:17.881Z,1.75
2022-07-31T16:09:19.593Z,2.35
2022-07-31T16:14:20.257Z,3.47
2022-07-31T16:19:24.794Z,2.42
2022-07-31T16:24:25.552Z,2.25
2022-07-31T16:30:00.882Z,1.38
2022-07-31T16:34:52.675Z,1.83
2022-07-31T16:39:55.881Z,1.70
2022-07-31T16:44:58.297Z,4.15
2022-07-31T16:50:02.917Z,1.60
2022-07-31T16:55:03.928Z,4.07
2022-07-31T17:00:05.544Z,2.00
2022-07-31T17:05:08.679Z,2.50
2022-07-31T17:10:10.737Z,1.75
2022-07-31T17:15:12.231Z,1.75
2022-07-31T17:20:14.880Z,3.05
2022-07-31T17:25:15.684Z,3.40
2022-07-31T17:30:16.956Z,2.55
2022-07-31T17:35:19.445Z,1.58
2022-07-31T17:40:41.147Z,2.80
2022-07-31T17:45:59.336Z,1.58
2022-07-31T17:51:03.413Z,1.77
2022-07-31T17:56:05.285Z,4.00
2022-07-31T18:01:07.399Z,2.78
2022-07-31T18:06:09.525Z,1.50
2022-07-31T18:11:10.180Z,4.80
2022-07-31T18:16:10.830Z,1.45
2022-07-31T18:21:13.453Z,4.72
2022-07-31T18:26:14.096Z,3.20
2022-07-31T18:31:34.613Z,1.67
2022-07-31T18:36:36.940Z,3.42
2022-07-31T18:41:38.312Z,2.65
2022-07-31T18:46:38.945Z,1.67
2022-07-31T18:51:40.990Z,1.80
2022-07-31T18:56:42.682Z,5.63
2022-07-31T19:01:43.382Z,1.67
2022-07-31T19:06:45.597Z,5.47
2022-07-31T19:11:50.665Z,2.30
2022-07-31T19:16:54.691Z,4.20
2022-07-31T19:21:57.343Z,2.65
2022-07-31T19:26:58.219Z,4.70
2022-07-31T19:31:59.398Z,2.97
2022-07-31T19:37:01.857Z,3.08
2022-07-31T19:42:11.487Z,4.60
2022-07-31T19:47:13.075Z,2.72
2022-07-31T19:52:15.208Z,2.28
2022-07-31T19:57:15.994Z,3.85
2022-07-31T20:02:17.186Z,3.50
2022-07-31T20:07:19.363Z,3.72
2022-07-31T20:12:20.251Z,1.48
2022-07-31T20:17:20.974Z,8.35
2022-07-31T20:22:23.797Z,3.72
2022-07-31T20:27:24.521Z,3.05
2022-07-31T20:32:25.210Z,5.53
2022-07-31T20:37:27.380Z,3.85
2022-07-31T20:42:28.089Z,3.33
2022-07-31T20:47:28.798Z,2.97
2022-07-31T20:52:30.953Z,2.88
2022-07-31T20:57:31.645Z,2.88
2022-07-31T21:02:32.274Z,2.10
2022-07-31T21:07:34.214Z,5.40
2022-07-31T21:12:34.880Z,3.38
2022-07-31T21:17:35.943Z,2.78
2022-07-31T21:22:37.955Z,7.20
2022-07-31T21:27:39.941Z,3.53
2022-07-31T21:32:40.922Z,2.88
2022-07-31T21:37:44.526Z,3.70
2022-07-31T21:42:47.453Z,3.78
2022-07-31T21:47:54.605Z,3.20
2022-07-31T21:52:56.551Z,6.57
2022-07-31T21:57:59.962Z,5.10
2022-07-31T22:03:01.137Z,5.00
2022-07-31T22:08:03.110Z,4.30
2022-07-31T22:13:05.324Z,6.32
2022-07-31T22:18:06.737Z,4.53
2022-07-31T22:23:08.829Z,1.85
2022-07-31T22:28:09.847Z,3.63
2022-07-31T22:33:10.678Z,3.10
2022-07-31T22:38:12.706Z,5.07
2022-07-31T22:44:11.137Z,5.32
2022-07-31T22:48:34.473Z,2.03
2022-07-31T22:53:37.140Z,4.72
2022-07-31T22:58:37.873Z,2.75
2022-07-31T23:03:38.542Z,4.28
2022-07-31T23:08:40.484Z,4.05
2022-07-31T23:13:41.098Z,2.78
2022-07-31T23:18:41.743Z,5.88
2022-07-31T23:23:49.057Z,5.35
2022-07-31T23:28:50.686Z,1.85
2022-07-31T23:33:51.719Z,5.47
2022-07-31T23:38:53.645Z,2.95
2022-07-31T23:43:55.206Z,3.80
2022-07-31T23:48:56.338Z,5.22
2022-07-31T23:53:58.344Z,2.58
2022-07-31T23:58:58.958Z,3.30
